Airport View

Enter AWOS ICAO identifier for current METAR.

ex. KFNL

KL52 080515Z AUTO 15003KT 4SM BR BKN003 14/13 A2999 RMK A01

8 Aug 2020 05:22

Frequency: 118.375

Phone: 805-489-1305

Other Area AWOS: KSBP - KSMX - KVBG - KLPC